createdAt,value
2022-08-10T00:01:11.450Z,85.20
2022-08-10T00:03:38.139Z,85.16
2022-08-10T00:06:04.823Z,85.94
2022-08-10T00:08:31.433Z,87.33
2022-08-10T00:10:58.282Z,87.59
2022-08-10T00:13:26.311Z,87.89
2022-08-10T00:15:55.311Z,87.79
2022-08-10T00:18:35.539Z,88.40
2022-08-10T00:21:06.524Z,88.12
2022-08-10T00:23:33.925Z,88.37
2022-08-10T00:26:01.181Z,88.62
2022-08-10T00:28:28.064Z,88.16
2022-08-10T00:30:54.662Z,87.88
2022-08-10T00:33:21.521Z,88.46
2022-08-10T00:35:48.827Z,88.61
2022-08-10T00:38:15.487Z,88.98
2022-08-10T00:40:42.375Z,88.87
2022-08-10T00:43:09.076Z,89.43
2022-08-10T00:45:36.723Z,88.78
2022-08-10T00:48:03.835Z,88.28
2022-08-10T00:50:30.760Z,88.15
2022-08-10T00:52:57.677Z,88.37
2022-08-10T00:55:24.594Z,89.81
2022-08-10T00:57:55.148Z,89.96
2022-08-10T01:00:23.668Z,90.03
2022-08-10T01:02:50.363Z,89.84
2022-08-10T01:05:17.359Z,90.31
2022-08-10T01:07:53.456Z,90.34
2022-08-10T01:10:41.695Z,89.79
2022-08-10T01:13:24.509Z,89.61
2022-08-10T01:16:21.645Z,89.58
2022-08-10T01:19:08.109Z,89.10
2022-08-10T01:21:56.788Z,89.55
2022-08-10T01:24:39.214Z,90.18
2022-08-10T01:27:32.239Z,89.73
2022-08-10T01:30:04.400Z,89.66
2022-08-10T01:32:37.250Z,89.92
2022-08-10T01:35:13.287Z,89.72
2022-08-10T01:37:51.751Z,90.12
2022-08-10T01:40:25.122Z,91.04
2022-08-10T01:42:54.943Z,91.40
2022-08-10T01:45:28.034Z,91.08
2022-08-10T01:48:16.767Z,91.12
2022-08-10T01:50:59.736Z,91.29
2022-08-10T01:53:40.205Z,91.05
2022-08-10T01:56:10.960Z,91.23
2022-08-10T01:58:39.579Z,91.50
2022-08-10T02:01:09.602Z,91.84
2022-08-10T02:04:05.400Z,91.34
2022-08-10T02:06:28.002Z,91.20
2022-08-10T02:09:05.769Z,91.42
2022-08-10T02:11:55.627Z,92.09
2022-08-10T02:14:21.665Z,92.72
2022-08-10T02:16:50.790Z,92.69
2022-08-10T02:19:23.099Z,92.63
2022-08-10T02:22:36.696Z,92.17
2022-08-10T02:24:42.826Z,90.89
2022-08-10T02:27:12.284Z,90.83
2022-08-10T02:29:42.313Z,90.71
2022-08-10T02:32:11.927Z,91.44
2022-08-10T02:34:40.090Z,91.33
2022-08-10T02:37:10.758Z,90.73
2022-08-10T02:39:37.919Z,90.50
2022-08-10T02:45:12.377Z,90.79
2022-08-10T02:45:20.000Z,91.29
2022-08-10T02:48:00.416Z,90.73
2022-08-10T02:50:35.524Z,89.81
2022-08-10T02:53:05.431Z,90.21
2022-08-10T02:55:51.066Z,91.36
2022-08-10T02:58:29.373Z,91.23
2022-08-10T03:00:57.343Z,90.40
2022-08-10T03:03:28.300Z,91.82
2022-08-10T03:06:00.346Z,92.06
2022-08-10T03:08:31.483Z,92.24
2022-08-10T03:11:02.870Z,91.32
2022-08-10T03:13:31.017Z,92.01
2022-08-10T03:15:58.755Z,91.63
2022-08-10T03:18:26.240Z,91.45
2022-08-10T03:20:55.767Z,90.34
2022-08-10T03:23:24.534Z,90.79
2022-08-10T03:25:55.468Z,91.25
2022-08-10T03:28:24.738Z,91.56
2022-08-10T03:30:52.127Z,91.94
2022-08-10T03:33:21.399Z,91.94
2022-08-10T03:36:42.184Z,91.88
2022-08-10T03:38:35.434Z,91.81
2022-08-10T03:41:04.509Z,91.66
2022-08-10T03:43:31.515Z,91.68
2022-08-10T03:46:01.210Z,92.40
2022-08-10T03:48:45.247Z,92.77
2022-08-10T03:51:18.937Z,92.50
2022-08-10T03:54:03.438Z,92.71
2022-08-10T03:56:34.777Z,92.68
2022-08-10T03:59:04.071Z,93.00
2022-08-10T04:02:43.693Z,94.31
2022-08-10T04:04:23.762Z,94.32
2022-08-10T04:06:57.497Z,94.62
2022-08-10T04:09:42.801Z,95.63
2022-08-10T04:12:15.645Z,95.69
2022-08-10T04:14:50.950Z,95.34
2022-08-10T04:18:02.745Z,95.28
2022-08-10T04:20:13.236Z,94.81
2022-08-10T04:22:41.894Z,94.97
2022-08-10T04:25:10.523Z,94.49
2022-08-10T04:27:37.423Z,94.63
2022-08-10T04:30:04.520Z,95.45
2022-08-10T04:32:32.254Z,96.24
2022-08-10T04:35:00.117Z,95.45
2022-08-10T04:37:27.654Z,94.39
2022-08-10T04:39:55.287Z,95.76
2022-08-10T04:42:21.994Z,96.83
2022-08-10T04:44:50.618Z,97.99
2022-08-10T04:47:17.230Z,96.04
2022-08-10T04:50:04.804Z,96.81
2022-08-10T04:52:31.661Z,96.77
2022-08-10T04:54:58.565Z,94.90
2022-08-10T04:57:25.419Z,94.67
2022-08-10T04:59:51.983Z,96.24
2022-08-10T05:02:29.399Z,97.10
2022-08-10T05:04:58.811Z,96.40
2022-08-10T05:07:25.827Z,97.08
2022-08-10T05:10:01.047Z,97.32
2022-08-10T05:12:39.041Z,98.61
2022-08-10T05:15:07.437Z,99.25
2022-08-10T05:17:35.866Z,98.08
2022-08-10T05:20:06.838Z,99.54
2022-08-10T05:22:41.243Z,98.89
2022-08-10T05:25:10.761Z,97.92
2022-08-10T05:27:38.329Z,98.77
2022-08-10T05:30:07.485Z,98.04
2022-08-10T05:32:58.586Z,97.89
2022-08-10T05:35:22.213Z,97.98
2022-08-10T05:38:09.626Z,96.88
2022-08-10T05:40:39.294Z,96.42
2022-08-10T05:43:06.915Z,95.63
2022-08-10T05:45:33.993Z,96.07
2022-08-10T05:48:54.561Z,94.69
2022-08-10T05:51:10.256Z,93.10
2022-08-10T05:54:03.023Z,92.43
2022-08-10T05:56:26.052Z,92.98
2022-08-10T05:58:52.931Z,93.77
2022-08-10T06:01:23.505Z,93.37
2022-08-10T06:03:54.111Z,91.94
2022-08-10T06:06:24.908Z,91.34
2022-08-10T06:08:53.583Z,91.86
2022-08-10T06:12:26.869Z,88.23
2022-08-10T06:14:28.332Z,88.58
2022-08-10T06:16:57.398Z,85.21
2022-08-10T06:19:25.511Z,85.71
2022-08-10T06:22:00.376Z,84.06
2022-08-10T06:24:31.181Z,84.85
2022-08-10T06:26:59.432Z,83.98
2022-08-10T06:29:29.502Z,81.66
2022-08-10T06:31:57.389Z,82.24
2022-08-10T06:34:30.509Z,79.71
2022-08-10T06:37:01.232Z,80.11
2022-08-10T06:39:36.411Z,80.52
2022-08-10T06:42:17.887Z,78.12
2022-08-10T06:45:07.682Z,76.17
2022-08-10T06:47:43.977Z,73.05
2022-08-10T06:50:34.410Z,72.94
2022-08-10T06:53:12.737Z,71.83
2022-08-10T06:55:55.478Z,72.42
2022-08-10T06:58:26.645Z,72.62
2022-08-10T07:00:55.668Z,72.86
2022-08-10T07:03:31.159Z,72.35
2022-08-10T07:05:59.865Z,72.10
2022-08-10T07:08:31.562Z,71.83
2022-08-10T07:10:59.343Z,72.05
2022-08-10T07:14:14.425Z,69.49
2022-08-10T07:16:16.466Z,70.76
2022-08-10T07:18:46.304Z,71.74
2022-08-10T07:21:15.010Z,71.44
2022-08-10T07:23:58.059Z,69.07
2022-08-10T07:26:30.403Z,69.40
2022-08-10T07:28:59.324Z,69.57
2022-08-10T07:31:54.408Z,68.78
2022-08-10T07:34:21.659Z,69.18
2022-08-10T07:37:01.202Z,66.53
2022-08-10T07:40:02.645Z,66.91
2022-08-10T07:42:20.709Z,68.57
2022-08-10T07:44:48.575Z,68.29
2022-08-10T07:47:19.913Z,68.29
2022-08-10T07:50:10.864Z,67.46
2022-08-10T07:52:39.932Z,67.55
2022-08-10T07:55:08.131Z,67.56
2022-08-10T07:57:40.246Z,67.32
2022-08-10T08:00:10.320Z,67.93
2022-08-10T08:02:48.328Z,67.93
2022-08-10T08:05:54.855Z,66.07
2022-08-10T08:08:05.390Z,66.04
2022-08-10T08:10:33.333Z,67.26
2022-08-10T08:13:01.611Z,64.78
2022-08-10T08:16:20.670Z,66.23
2022-08-10T08:18:20.524Z,66.64
2022-08-10T08:20:52.961Z,66.34
2022-08-10T08:24:04.730Z,65.10
2022-08-10T08:26:10.564Z,64.10
2022-08-10T08:28:38.493Z,65.14
2022-08-10T08:31:05.485Z,64.53
2022-08-10T08:33:41.885Z,64.63
2022-08-10T08:36:09.866Z,64.12
2022-08-10T08:38:37.899Z,63.19
2022-08-10T08:41:27.329Z,63.71
2022-08-10T08:44:03.415Z,63.50
2022-08-10T08:46:45.352Z,64.88
2022-08-10T08:50:08.951Z,64.65
2022-08-10T08:52:47.864Z,65.33
2022-08-10T08:56:03.031Z,63.21
2022-08-10T08:58:27.812Z,64.21
2022-08-10T09:00:55.381Z,65.91
2022-08-10T09:03:27.563Z,63.53
2022-08-10T09:06:30.052Z,62.27
2022-08-10T09:09:20.314Z,62.37
2022-08-10T09:12:11.865Z,63.53
2022-08-10T09:15:00.663Z,63.36
2022-08-10T09:17:42.279Z,60.41
2022-08-10T09:20:19.084Z,60.42
2022-08-10T09:23:07.774Z,60.95
2022-08-10T09:25:45.151Z,60.89
2022-08-10T09:28:22.536Z,59.02
2022-08-10T09:31:23.036Z,61.34
2022-08-10T09:36:26.997Z,59.94
2022-08-10T09:37:00.384Z,60.60
2022-08-10T09:40:12.315Z,61.21
2022-08-10T09:43:02.206Z,59.03
2022-08-10T09:46:06.779Z,57.99
2022-08-10T09:48:51.836Z,58.46
2022-08-10T09:51:49.031Z,58.47
2022-08-10T09:54:48.787Z,56.71
2022-08-10T09:57:50.638Z,56.95
2022-08-10T10:00:27.162Z,58.35
2022-08-10T10:03:08.855Z,55.85
2022-08-10T10:06:05.940Z,55.67
2022-08-10T10:08:48.690Z,55.76
2022-08-10T10:11:40.070Z,55.92
2022-08-10T10:14:57.020Z,57.60
2022-08-10T10:17:33.971Z,56.37
2022-08-10T10:20:14.912Z,53.88
2022-08-10T10:22:50.497Z,54.69
2022-08-10T10:25:50.139Z,54.39
2022-08-10T10:29:06.974Z,55.59
2022-08-10T10:31:30.333Z,56.20
2022-08-10T10:34:12.524Z,55.59
2022-08-10T10:36:42.420Z,56.42
2022-08-10T10:39:13.543Z,56.48
2022-08-10T10:42:03.887Z,56.25
2022-08-10T10:44:42.615Z,54.81
2022-08-10T10:47:38.019Z,54.82
2022-08-10T10:50:11.280Z,54.92
2022-08-10T10:52:58.442Z,54.04
2022-08-10T10:55:33.712Z,55.02
2022-08-10T10:58:28.603Z,54.09
2022-08-10T11:01:11.195Z,56.14
2022-08-10T11:04:09.047Z,56.52
2022-08-10T11:07:03.988Z,55.55
2022-08-10T11:10:07.001Z,56.72
2022-08-10T11:12:37.128Z,55.31
2022-08-10T11:15:16.054Z,55.08
2022-08-10T11:17:56.544Z,56.75
2022-08-10T11:20:37.420Z,55.65
2022-08-10T11:23:10.400Z,56.51
2022-08-10T11:25:41.439Z,55.16
2022-08-10T11:28:18.088Z,53.77
2022-08-10T11:31:10.948Z,53.91
2022-08-10T11:34:03.864Z,53.05
2022-08-10T11:36:29.120Z,53.71
2022-08-10T11:39:15.319Z,53.22
2022-08-10T11:42:09.880Z,54.06
2022-08-10T11:44:53.619Z,53.25
2022-08-10T11:47:27.906Z,53.06
2022-08-10T11:50:15.950Z,53.02
2022-08-10T11:53:16.089Z,52.53
2022-08-10T11:55:49.342Z,51.66
2022-08-10T11:58:32.879Z,51.07
2022-08-10T12:01:02.522Z,50.33
2022-08-10T12:03:34.912Z,51.12
2022-08-10T12:06:04.624Z,51.70
2022-08-10T12:10:02.675Z,50.70
2022-08-10T12:11:25.385Z,50.29
2022-08-10T12:14:20.800Z,51.76
2022-08-10T12:16:52.746Z,50.76
2022-08-10T12:19:31.380Z,49.84
2022-08-10T12:22:24.267Z,50.85
2022-08-10T12:25:00.611Z,50.66
2022-08-10T12:27:50.752Z,48.99
2022-08-10T12:30:20.101Z,49.34
2022-08-10T12:33:09.372Z,50.81
2022-08-10T12:35:56.089Z,48.73
2022-08-10T12:38:39.282Z,46.48
2022-08-10T12:41:16.753Z,45.39
2022-08-10T12:44:07.287Z,48.36
2022-08-10T12:47:14.041Z,48.62
2022-08-10T12:50:23.793Z,48.20
2022-08-10T12:52:48.451Z,46.57
2022-08-10T12:55:17.877Z,45.66
2022-08-10T12:57:51.310Z,45.07
2022-08-10T13:00:19.920Z,44.33
2022-08-10T13:02:49.240Z,44.65
2022-08-10T13:05:17.203Z,44.96
2022-08-10T13:08:04.062Z,44.89
2022-08-10T13:10:41.532Z,43.70
2022-08-10T13:13:09.030Z,44.99
2022-08-10T13:15:48.747Z,42.07
2022-08-10T13:18:22.927Z,44.42
2022-08-10T13:20:52.327Z,44.18
2022-08-10T13:23:28.174Z,43.58
2022-08-10T13:25:59.425Z,42.37
2022-08-10T13:28:39.663Z,44.19
2022-08-10T13:31:16.618Z,43.85
2022-08-10T13:34:41.299Z,44.13
2022-08-10T13:36:42.113Z,43.95
2022-08-10T13:39:11.043Z,44.18
2022-08-10T13:41:41.045Z,44.41
2022-08-10T13:44:11.460Z,44.33
2022-08-10T13:46:42.089Z,44.60
2022-08-10T13:49:11.242Z,44.10
2022-08-10T13:51:56.636Z,43.67
2022-08-10T13:54:39.151Z,43.13
2022-08-10T13:57:06.849Z,43.10
2022-08-10T14:00:34.325Z,42.15
2022-08-10T14:02:27.160Z,42.30
2022-08-10T14:04:56.242Z,42.75
2022-08-10T14:07:24.220Z,43.48
2022-08-10T14:09:53.147Z,43.55
2022-08-10T14:12:32.281Z,43.61
2022-08-10T14:15:03.119Z,41.28
2022-08-10T14:17:30.601Z,43.01
2022-08-10T14:19:59.205Z,42.54
2022-08-10T14:22:34.256Z,43.17
2022-08-10T14:25:11.769Z,42.50
2022-08-10T14:28:02.423Z,42.89
2022-08-10T14:30:31.343Z,41.66
2022-08-10T14:33:04.012Z,41.77
2022-08-10T14:36:20.786Z,41.59
2022-08-10T14:38:23.333Z,42.31
2022-08-10T14:40:53.667Z,42.16
2022-08-10T14:43:28.405Z,42.14
2022-08-10T14:46:01.345Z,42.14
2022-08-10T14:48:33.914Z,41.85
2022-08-10T14:51:03.069Z,41.82
2022-08-10T14:53:34.668Z,42.20
2022-08-10T14:56:03.395Z,41.73
2022-08-10T14:58:38.689Z,42.31
2022-08-10T15:01:07.785Z,41.75
2022-08-10T15:03:58.826Z,41.66
2022-08-10T15:06:30.992Z,42.27
2022-08-10T15:09:19.746Z,40.47
2022-08-10T15:12:15.711Z,40.94
2022-08-10T15:14:45.624Z,41.69
2022-08-10T15:17:17.225Z,40.73
2022-08-10T15:20:02.142Z,39.50
2022-08-10T15:22:46.597Z,41.22
2022-08-10T15:25:17.944Z,41.22
2022-08-10T15:27:56.235Z,40.96
2022-08-10T15:30:30.860Z,41.59
2022-08-10T15:33:21.451Z,42.67
2022-08-10T15:36:21.720Z,42.06
2022-08-10T15:38:56.648Z,41.45
2022-08-10T15:41:57.773Z,42.45
2022-08-10T15:44:33.839Z,40.93
2022-08-10T15:47:05.940Z,40.78
2022-08-10T15:49:45.085Z,40.60
2022-08-10T15:52:39.878Z,40.99
2022-08-10T15:55:44.036Z,40.74
2022-08-10T15:58:06.641Z,41.21
2022-08-10T16:00:37.934Z,41.00
2022-08-10T16:03:15.659Z,40.98
2022-08-10T16:06:00.991Z,41.18
2022-08-10T16:08:56.337Z,39.07
2022-08-10T16:11:42.095Z,42.57
2022-08-10T16:14:14.650Z,38.89
2022-08-10T16:16:47.659Z,39.89
2022-08-10T16:19:23.915Z,41.53
2022-08-10T16:22:35.795Z,42.01
2022-08-10T16:24:58.490Z,43.61
2022-08-10T16:27:28.227Z,42.67
2022-08-10T16:30:00.830Z,41.71
2022-08-10T16:32:30.372Z,42.25
2022-08-10T16:34:58.161Z,42.21
2022-08-10T16:37:58.275Z,44.19
2022-08-10T16:40:23.620Z,43.89
2022-08-10T16:42:51.439Z,41.60
2022-08-10T16:45:24.137Z,41.77
2022-08-10T16:47:53.803Z,40.93
2022-08-10T16:50:26.750Z,41.06
2022-08-10T16:52:55.686Z,41.04
2022-08-10T16:55:48.122Z,41.75
2022-08-10T16:58:14.279Z,41.48
2022-08-10T17:00:44.404Z,41.01
2022-08-10T17:04:05.306Z,40.87
2022-08-10T17:06:11.108Z,41.16
2022-08-10T17:08:48.225Z,41.46
2022-08-10T17:11:17.372Z,41.42
2022-08-10T17:13:44.191Z,41.80
2022-08-10T17:16:17.145Z,41.65
2022-08-10T17:18:46.956Z,41.73
2022-08-10T17:21:16.239Z,42.18
2022-08-10T17:23:46.996Z,41.96
2022-08-10T17:26:18.743Z,42.85
2022-08-10T17:28:56.430Z,43.05
2022-08-10T17:31:54.188Z,42.73
2022-08-10T17:34:21.215Z,43.17
2022-08-10T17:36:53.619Z,43.28
2022-08-10T17:39:23.766Z,44.80
2022-08-10T17:41:53.052Z,43.60
2022-08-10T17:44:21.280Z,44.26
2022-08-10T17:46:48.037Z,44.63
2022-08-10T17:49:18.040Z,45.14
2022-08-10T17:51:52.163Z,44.44
2022-08-10T17:54:27.305Z,48.71
2022-08-10T17:56:59.150Z,49.21
2022-08-10T17:59:28.669Z,47.32
2022-08-10T18:02:02.604Z,49.75
2022-08-10T18:04:41.421Z,50.90
2022-08-10T18:07:10.998Z,49.52
2022-08-10T18:09:42.139Z,50.62
2022-08-10T18:12:18.500Z,49.60
2022-08-10T18:14:48.291Z,50.87
2022-08-10T18:17:18.859Z,51.03
2022-08-10T18:19:52.620Z,50.99
2022-08-10T18:22:20.395Z,50.92
2022-08-10T18:24:49.082Z,50.56
2022-08-10T18:27:17.044Z,52.56
2022-08-10T18:29:47.983Z,53.23
2022-08-10T18:32:15.878Z,53.79
2022-08-10T18:34:43.979Z,54.32
2022-08-10T18:37:20.178Z,55.67
2022-08-10T18:39:49.065Z,55.42
2022-08-10T18:42:21.973Z,54.51
2022-08-10T18:44:58.741Z,53.28
2022-08-10T18:47:33.711Z,53.25
2022-08-10T18:50:09.144Z,55.96
2022-08-10T18:52:38.175Z,56.80
2022-08-10T18:55:26.877Z,59.32
2022-08-10T18:58:12.880Z,58.25
2022-08-10T19:01:08.642Z,56.44
2022-08-10T19:03:57.593Z,56.85
2022-08-10T19:06:39.365Z,55.62
2022-08-10T19:09:47.586Z,55.88
2022-08-10T19:12:31.026Z,56.07
2022-08-10T19:15:23.270Z,57.25
2022-08-10T19:18:07.031Z,58.16
2022-08-10T19:20:41.162Z,59.41
2022-08-10T19:23:44.289Z,58.27
2022-08-10T19:26:45.052Z,57.79
2022-08-10T19:30:09.560Z,58.70
2022-08-10T19:32:49.580Z,60.56
2022-08-10T19:35:33.354Z,59.38
2022-08-10T19:38:33.201Z,60.41
2022-08-10T19:41:14.983Z,60.64
2022-08-10T19:44:02.577Z,58.91
2022-08-10T19:46:49.114Z,58.33
2022-08-10T19:49:15.660Z,58.92
2022-08-10T19:51:49.295Z,59.25
2022-08-10T19:54:35.859Z,59.04
2022-08-10T19:57:13.014Z,58.38
2022-08-10T20:00:15.246Z,59.06
2022-08-10T20:03:02.814Z,58.52
2022-08-10T20:06:19.325Z,58.40
2022-08-10T20:08:48.144Z,59.69
2022-08-10T20:11:45.173Z,59.83
2022-08-10T20:14:22.304Z,61.67
2022-08-10T20:16:51.648Z,59.60
2022-08-10T20:19:52.519Z,60.67
2022-08-10T20:22:29.249Z,60.76
2022-08-10T20:25:14.241Z,61.14
2022-08-10T20:28:01.712Z,61.13
2022-08-10T20:30:33.242Z,61.74
2022-08-10T20:33:09.621Z,61.65
2022-08-10T20:35:38.255Z,61.76
2022-08-10T20:38:16.577Z,61.35
2022-08-10T20:40:50.166Z,62.85
2022-08-10T20:43:34.769Z,63.51
2022-08-10T20:46:32.014Z,63.34
2022-08-10T20:49:11.554Z,64.39
2022-08-10T20:51:59.225Z,64.48
2022-08-10T20:54:34.906Z,66.94
2022-08-10T20:57:54.856Z,67.16
2022-08-10T21:00:11.111Z,67.34
2022-08-10T21:02:50.605Z,66.20
2022-08-10T21:05:52.725Z,68.66
2022-08-10T21:08:45.134Z,68.76
2022-08-10T21:11:23.772Z,69.03
2022-08-10T21:14:02.334Z,68.63
2022-08-10T21:16:49.489Z,68.95
2022-08-10T21:19:31.432Z,69.10
2022-08-10T21:22:16.714Z,69.47
2022-08-10T21:24:48.662Z,69.59
2022-08-10T21:27:34.265Z,70.27
2022-08-10T21:30:17.830Z,70.37
2022-08-10T21:33:07.501Z,70.95
2022-08-10T21:35:43.329Z,71.06
2022-08-10T21:38:26.565Z,71.01
2022-08-10T21:41:17.120Z,71.04
2022-08-10T21:44:20.241Z,71.54
2022-08-10T21:47:31.008Z,72.00
2022-08-10T21:50:27.296Z,71.80
2022-08-10T21:53:21.864Z,72.42
2022-08-10T21:56:36.455Z,71.69
2022-08-10T21:59:36.161Z,71.74
2022-08-10T22:02:28.376Z,72.68
2022-08-10T22:05:15.857Z,73.09
2022-08-10T22:08:05.317Z,72.90
2022-08-10T22:10:47.394Z,71.92
2022-08-10T22:13:33.948Z,71.27
2022-08-10T22:16:17.378Z,71.15
2022-08-10T22:19:04.516Z,71.16
2022-08-10T22:22:19.759Z,71.30
2022-08-10T22:25:39.809Z,71.43
2022-08-10T22:28:21.816Z,71.65
2022-08-10T22:34:45.998Z,70.68
2022-08-10T22:37:52.718Z,71.92
2022-08-10T22:40:38.914Z,71.89
2022-08-10T22:43:36.421Z,71.89
2022-08-10T22:46:26.241Z,71.85
2022-08-10T22:49:00.278Z,72.01
2022-08-10T22:51:43.060Z,71.47
2022-08-10T22:54:31.876Z,71.26
2022-08-10T22:57:16.221Z,71.74
2022-08-10T22:59:42.896Z,71.75
2022-08-10T23:02:14.163Z,72.45
2022-08-10T23:04:50.763Z,72.57
2022-08-10T23:07:17.335Z,72.02
2022-08-10T23:09:47.272Z,71.94
2022-08-10T23:12:20.587Z,71.99
2022-08-10T23:15:00.044Z,72.42
2022-08-10T23:18:00.668Z,71.77
2022-08-10T23:20:30.542Z,72.17
2022-08-10T23:23:07.370Z,72.03
2022-08-10T23:25:56.186Z,71.98
2022-08-10T23:28:39.131Z,71.20
2022-08-10T23:31:14.629Z,70.45
2022-08-10T23:33:42.881Z,70.46
2022-08-10T23:36:34.398Z,70.64
2022-08-10T23:39:25.470Z,70.21
2022-08-10T23:41:56.705Z,70.15
2022-08-10T23:44:24.766Z,70.28
2022-08-10T23:46:52.229Z,68.70
2022-08-10T23:49:20.975Z,68.21
2022-08-10T23:51:55.365Z,67.91
2022-08-10T23:54:25.083Z,68.42
2022-08-10T23:57:01.096Z,68.23
2022-08-10T23:59:31.831Z,68.76
